Terminal Aerodrome Forecast
Issued by NWS

Home | Current Version | Previous Version | Text Only | Print | Product List | Glossary On
Versions: 1 2 3 4 5 6 7 8 9 10 11 12 13 14
000
FTUS41 KPHI 272349
TAFMIV
TAF
KMIV 272349Z 2800/2824 15005KT P6SM BKN040 BKN120
     FM280200 00000KT P6SM FEW020 BKN150
      TEMPO 2808/2811 5SM BR BKN015
     FM281400 VRB03KT P6SM SCT025
     FM282000 23006KT P6SM SCT040=

USA.gov is the U.S. government's official web portal to all federal, state and local government web resources and services.